Climatologie pour Saint-Brevin les Pins
Jour • Résumé pour avril 30, 2017 Système :  Métrique    Anglais   Mixte
« - 1 jour
+ 1 jour »
Jour Semaine Mois Année Personnalisé
  Maximum : Minimum : Moyenne :
Température sous abri : -17.8 °C -13.5 °C -11.9 °C
Point de rosée : -17.8 °C -16.2 °C -13.7 °C
Humidité : Humidity % 55 % 81 %
Vitesse du vent : 0 km/h 0 km/h 14.5 km/h
Rafale : 0 km/h - -
Direction :- - SSW
Pression : 0 hPa 33741.5 hPa -
Précipitations : 368.3 mm    
Historical Graphs
 
 
Tableau de données pour avril 30, 2017
Heure Tempé Pt rosée Pression Vent Vitesse Rafale Humidité Taux pluie (/hr) Soleil
-17.8 °C -17.8 °C 0 hPa Calm     Humidity % 0 mm SolarRadiationWatts/m^2 W/m2 Conditions
00:05 -13.3 °C -15.5 °C 34015.8 hPa Calm   5.1 km/h 76 % 0 mm 0 W/m2
00:10 -13.3 °C -15.4 °C 34015.8 hPa Calm   5.1 km/h 77 % 0 mm 0 W/m2
00:15 -13.4 °C -15.4 °C 34005.6 hPa ESE 5.1 km/h 5.1 km/h 78 % 0 mm 0 W/m2
00:20 -13.1 °C -15.4 °C 34005.6 hPa Calm   7.7 km/h 75 % 0 mm 0 W/m2
00:25 -13 °C -15.4 °C 34005.6 hPa Calm   10.3 km/h 74 % 0 mm 0 W/m2
00:30 -12.9 °C -15.5 °C 34005.6 hPa SSE 5.1 km/h 12.9 km/h 72 % 0 mm 0 W/m2
00:35 -12.6 °C -15.6 °C 34005.6 hPa SE 7.7 km/h 12.9 km/h 69 % 0 mm 0 W/m2
00:40 -12.3 °C -15.7 °C 34005.6 hPa SE 7.7 km/h 15.6 km/h 66 % 0 mm 0 W/m2
00:50 -11.8 °C -15.7 °C 33992.1 hPa SE 7.7 km/h 18.2 km/h 62 % 0 mm 0 W/m2
00:55 -11.6 °C -15.8 °C 33992.1 hPa SSE 10.3 km/h 28.5 km/h 60 % 0 mm 0 W/m2
01:00 -11.5 °C -15.8 °C 33992.1 hPa SE 12.9 km/h 28.5 km/h 59 % 0 mm 0 W/m2
01:05 -11.4 °C -15.8 °C 33992.1 hPa SSE 10.3 km/h 20.8 km/h 58 % 0 mm 0 W/m2
01:10 -11.3 °C -15.9 °C 33992.1 hPa SE 7.7 km/h 15.6 km/h 57 % 0 mm 0 W/m2
01:15 -11.3 °C -15.9 °C 33992.1 hPa SSE 18.2 km/h 18.2 km/h 57 % 0 mm 0 W/m2
01:20 -11.3 °C -15.9 °C 33992.1 hPa SE 7.7 km/h 20.8 km/h 57 % 0 mm 0 W/m2
01:25 -11.3 °C -16.1 °C 33981.9 hPa SE 10.3 km/h 20.8 km/h 56 % 0 mm 0 W/m2
01:35 -11.3 °C -16.1 °C 33981.9 hPa SSE 7.7 km/h 18.2 km/h 56 % 0 mm 0 W/m2
01:40 -11.4 °C -16.1 °C 33981.9 hPa SSE 2.6 km/h 20.8 km/h 56 % 0 mm 0 W/m2
01:45 -11.4 °C -16.1 °C 33981.9 hPa SSE 2.6 km/h 20.8 km/h 56 % 0 mm 0 W/m2
01:50 -11.4 °C -16.2 °C 33971.7 hPa SSE 7.7 km/h 20.8 km/h 56 % 0 mm 0 W/m2
01:55 -11.4 °C -16.1 °C 33971.7 hPa SSE 7.7 km/h 20.8 km/h 56 % 0 mm 0 W/m2
02:00 -11.4 °C -16.1 °C 33971.7 hPa SSE 5.1 km/h 20.8 km/h 56 % 0 mm 0 W/m2
02:05 -11.5 °C -16.2 °C 33958.2 hPa SE 5.1 km/h 20.8 km/h 56 % 0 mm 0 W/m2
02:10 -11.6 °C -16.1 °C 33958.2 hPa SE 5.1 km/h 18.2 km/h 57 % 0 mm 0 W/m2
02:20 -11.4 °C -16.2 °C 33958.2 hPa SE 7.7 km/h 23.3 km/h 56 % 0 mm 0 W/m2
02:25 -11.4 °C -16.2 °C 33948 hPa SSE 2.6 km/h 23.3 km/h 56 % 0 mm 0 W/m2
02:30 -11.4 °C -16.1 °C 33948 hPa SSE 7.7 km/h 23.3 km/h 56 % 0 mm 0 W/m2
02:35 -11.4 °C -16.1 °C 33948 hPa SSE 7.7 km/h 23.3 km/h 56 % 0 mm 0 W/m2
02:40 -11.4 °C -16.1 °C 33937.9 hPa SE 5.1 km/h 20.8 km/h 56 % 0 mm 0 W/m2
02:45 -11.4 °C -16.1 °C 33937.9 hPa SE 12.9 km/h 23.3 km/h 56 % 0 mm 0 W/m2
02:50 -11.3 °C -16.2 °C 33937.9 hPa SSE 10.3 km/h 23.3 km/h 55 % 0 mm 0 W/m2
02:55 -11.3 °C -16.2 °C 33937.9 hPa SE 10.3 km/h 31.1 km/h 55 % 0 mm 0 W/m2
03:05 -11.2 °C -16.1 °C 33924.3 hPa South 18.2 km/h 31.1 km/h 55 % 0 mm 0 W/m2
03:10 -11.2 °C -16.1 °C 33924.3 hPa SSE 5.1 km/h 31.1 km/h 55 % 0 mm 0 W/m2
03:15 -11.2 °C -16.1 °C 33914.2 hPa SSE 15.6 km/h 28.5 km/h 55 % 0 mm 0 W/m2
03:20 -11.2 °C -16.1 °C 33914.2 hPa SSE 7.7 km/h 31.1 km/h 55 % 0 mm 0 W/m2
03:25 -11.2 °C -16.1 °C 33914.2 hPa South 18.2 km/h 31.1 km/h 55 % 0 mm 0 W/m2
03:30 -11.2 °C -16.1 °C 33914.2 hPa SSE 18.2 km/h 31.1 km/h 55 % 0 mm 0 W/m2
03:35 -11.2 °C -16.1 °C 33914.2 hPa SSE 7.7 km/h 31.1 km/h 55 % 0 mm 0 W/m2
03:40 -11.2 °C -15.9 °C 33914.2 hPa SSE 12.9 km/h 25.9 km/h 56 % 0 mm 0 W/m2
03:50 -11.1 °C -15.8 °C 33914.2 hPa SSE 12.9 km/h 28.5 km/h 56 % 0 mm 0 W/m2
03:55 -11.1 °C -15.8 °C 33900.6 hPa SSE 15.6 km/h 31.1 km/h 56 % 0 mm 0 W/m2
04:00 -11 °C -15.6 °C 33900.6 hPa SSE 12.9 km/h 31.1 km/h 57 % 0 mm 0 W/m2
04:05 -11 °C -15.6 °C 33900.6 hPa SE 12.9 km/h 23.3 km/h 57 % 0 mm 0 W/m2
04:10 -10.9 °C -15.6 °C 33890.5 hPa SSE 7.7 km/h 25.9 km/h 57 % 0 mm 0 W/m2
04:15 -10.9 °C -15.4 °C 33890.5 hPa SSE 18.2 km/h 28.5 km/h 58 % 0 mm 0 W/m2
04:20 -10.9 °C -15.3 °C 33890.5 hPa SSE 18.2 km/h 28.5 km/h 58 % 0 mm 0 W/m2
04:25 -10.8 °C -15.3 °C 33890.5 hPa SSE 23.3 km/h 28.5 km/h 58 % 0 mm 0 W/m2
04:35 -10.7 °C -15.2 °C 33890.5 hPa South 18.2 km/h 33.6 km/h 58 % 0 mm 0 W/m2
04:40 -10.7 °C -15.2 °C 33880.3 hPa South 15.6 km/h 33.6 km/h 58 % 0 mm 0 W/m2
04:45 -10.7 °C -15.2 °C 33880.3 hPa SSW 12.9 km/h 31.1 km/h 58 % 0 mm 0 W/m2
04:50 -10.7 °C -15.2 °C 33880.3 hPa SE 18.2 km/h 31.1 km/h 58 % 0 mm 0 W/m2
04:55 -10.7 °C -15.2 °C 33866.8 hPa SSE 10.3 km/h 28.5 km/h 58 % 0 mm 0 W/m2
05:00 -10.7 °C -15.2 °C 33866.8 hPa SSE 20.8 km/h 28.5 km/h 58 % 0 mm 0 W/m2
05:05 -10.8 °C -15.1 °C 33866.8 hPa SE 18.2 km/h 28.5 km/h 59 % 0 mm 0 W/m2
05:10 -10.8 °C -15.1 °C 33856.6 hPa SSE 7.7 km/h 23.3 km/h 59 % 0 mm 0 W/m2
05:20 -11.1 °C -14.5 °C 33866.8 hPa South 18.2 km/h 23.3 km/h 66 % 0 mm 0 W/m2
05:25 -11.2 °C -14.3 °C 33866.8 hPa SE 12.9 km/h 28.5 km/h 69 % 0 mm 0 W/m2
05:30 -11.3 °C -14.1 °C 33856.6 hPa South 12.9 km/h 28.5 km/h 72 % 12.7 mm 0 W/m2
05:35 -11.7 °C -13.7 °C 33856.6 hPa SE 10.3 km/h 28.5 km/h 78 % 12.7 mm 0 W/m2
05:40 -11.9 °C -13.5 °C 33843.1 hPa SE 10.3 km/h 23.3 km/h 82 % 20.32 mm 0 W/m2
05:45 -12.1 °C -13.5 °C 33843.1 hPa ESE 2.6 km/h 15.6 km/h 84 % 20.32 mm 0 W/m2
05:50 -12.1 °C -13.4 °C 33843.1 hPa SE 2.6 km/h 15.6 km/h 86 % 20.32 mm 0 W/m2
05:55 -12.1 °C -13.4 °C 33832.9 hPa SSE 7.7 km/h 15.6 km/h 86 % 20.32 mm 0 W/m2
06:05 -12.1 °C -13.4 °C 33843.1 hPa SSE 2.6 km/h 15.6 km/h 85 % 20.32 mm 0 W/m2
06:10 -12.1 °C -13.5 °C 33832.9 hPa SSE 2.6 km/h 15.6 km/h 84 % 20.32 mm 0 W/m2
06:15 -12.1 °C -13.5 °C 33832.9 hPa SSE 10.3 km/h 15.6 km/h 84 % 20.32 mm 0 W/m2
06:20 -12 °C -13.6 °C 33832.9 hPa SSE 5.1 km/h 15.6 km/h 83 % 20.32 mm 0 W/m2
06:25 -12.1 °C -13.4 °C 33832.9 hPa SW 2.6 km/h 15.6 km/h 85 % 20.32 mm 0 W/m2
06:30 -12.2 °C -13.3 °C 33843.1 hPa Calm   7.7 km/h 88 % 7.62 mm 0 W/m2
06:35 -12.4 °C -13.2 °C 33843.1 hPa Calm   5.1 km/h 90 % 7.62 mm 0 W/m2
06:40 -12.4 °C -13.2 °C 33843.1 hPa Calm   7.7 km/h 91 % 0 mm 0 W/m2
06:50 -12.4 °C -13.2 °C 33856.6 hPa West 2.6 km/h 15.6 km/h 91 % 12.7 mm 0 W/m2
06:55 -12.4 °C -13.3 °C 33856.6 hPa SW 12.9 km/h 25.9 km/h 90 % 25.4 mm 0 W/m2
07:00 -12.4 °C -13.3 °C 33843.1 hPa Calm   25.9 km/h 90 % 38.1 mm 0 W/m2
07:05 -12.5 °C -13.3 °C 33843.1 hPa SW 5.1 km/h 15.6 km/h 91 % 38.1 mm 0 W/m2
07:10 -12.4 °C -13.2 °C 33856.6 hPa West 5.1 km/h 12.9 km/h 91 % 58.42 mm 0 W/m2
07:15 -12.4 °C -13.2 °C 33856.6 hPa SSW 10.3 km/h 20.8 km/h 92 % 104.14 mm 0 W/m2
07:20 -12.4 °C -13.2 °C 33843.1 hPa SSW 7.7 km/h 20.8 km/h 92 % 129.54 mm 0 W/m2
07:25 -12.4 °C -13.2 °C 33843.1 hPa SSE 10.3 km/h 25.9 km/h 92 % 129.54 mm 0 W/m2
07:35 -12.6 °C -13.2 °C 33832.9 hPa SE 12.9 km/h 18.2 km/h 92 % 142.24 mm 5 W/m2
07:40 -12.6 °C -13.2 °C 33832.9 hPa SE 5.1 km/h 12.9 km/h 93 % 142.24 mm 0 W/m2
07:45 -12.6 °C -13.2 °C 33822.8 hPa Calm   12.9 km/h 93 % 134.62 mm 0 W/m2
07:50 -12.6 °C -13.2 °C 33822.8 hPa Calm   7.7 km/h 93 % 129.54 mm 0 W/m2
07:55 -12.6 °C -13.1 °C 33822.8 hPa Calm   7.7 km/h 94 % 121.92 mm 0 W/m2
08:00 -12.6 °C -13.1 °C 33822.8 hPa Calm   7.7 km/h 94 % 116.84 mm 0 W/m2
08:05 -12.6 °C -13.1 °C 33822.8 hPa Calm   7.7 km/h 94 % 116.84 mm 0 W/m2
08:10 -12.6 °C -13.1 °C 33809.2 hPa Calm   2.6 km/h 94 % 91.44 mm 5 W/m2
08:20 -12.6 °C -13.1 °C 33809.2 hPa SE 2.6 km/h 5.1 km/h 95 % 45.72 mm 11 W/m2
08:25 -12.6 °C -13.1 °C 33809.2 hPa Calm   12.9 km/h 95 % 38.1 mm 11 W/m2
08:30 -12.7 °C -13.1 °C 33809.2 hPa SE 12.9 km/h 12.9 km/h 95 % 33.02 mm 12 W/m2
08:35 -12.7 °C -13.1 °C 33799.1 hPa SE 5.1 km/h 12.9 km/h 95 % 33.02 mm 21 W/m2
08:40 -12.7 °C -13.1 °C 33788.9 hPa SE 10.3 km/h 18.2 km/h 95 % 33.02 mm 26 W/m2
08:45 -12.6 °C -13.1 °C 33799.1 hPa SE 2.6 km/h 20.8 km/h 95 % 33.02 mm 12 W/m2
08:50 -12.6 °C -13.1 °C 33799.1 hPa SE 7.7 km/h 20.8 km/h 95 % 25.4 mm 21 W/m2
08:55 -12.6 °C -13.1 °C 33799.1 hPa SSE 5.1 km/h 18.2 km/h 95 % 20.32 mm 26 W/m2
09:05 -12.6 °C -13.1 °C 33788.9 hPa SE 5.1 km/h 15.6 km/h 94 % 12.7 mm 30 W/m2
09:10 -12.6 °C -13.1 °C 33788.9 hPa SSE 7.7 km/h 23.3 km/h 94 % 12.7 mm 35 W/m2
09:15 -12.5 °C -13 °C 33788.9 hPa SSE 2.6 km/h 23.3 km/h 94 % 7.62 mm 81 W/m2
09:20 -12.4 °C -12.9 °C 33775.4 hPa Calm   12.9 km/h 94 % 0 mm 107 W/m2
09:25 -12.3 °C -12.8 °C 33775.4 hPa Calm   10.3 km/h 94 % 0 mm 135 W/m2
09:30 -12.3 °C -12.8 °C 33775.4 hPa SSW 5.1 km/h 15.6 km/h 94 % 0 mm 56 W/m2
09:35 -12.3 °C -12.9 °C 33775.4 hPa SSW 7.7 km/h 15.6 km/h 93 % 0 mm 33 W/m2
09:40 -12.3 °C -12.8 °C 33775.4 hPa Calm   10.3 km/h 93 % 0 mm 72 W/m2
09:50 -12.1 °C -12.7 °C 33765.2 hPa SSE 2.6 km/h 18.2 km/h 94 % 0 mm 95 W/m2
09:55 -12.1 °C -12.6 °C 33751.6 hPa SE 5.1 km/h 12.9 km/h 94 % 0 mm 202 W/m2
10:00 -11.6 °C -12.1 °C 33751.6 hPa SSE 7.7 km/h 18.2 km/h 95 % 0 mm 575 W/m2
10:05 -11.3 °C -11.8 °C 33751.6 hPa Calm   18.2 km/h 94 % 0 mm 547 W/m2
10:10 -11 °C -11.6 °C 33741.5 hPa South 7.7 km/h 12.9 km/h 93 % 0 mm 487 W/m2
10:20 -10.6 °C -11.3 °C 33751.6 hPa SSW 5.1 km/h 15.6 km/h 92 % 0 mm 436 W/m2
10:25 -10.6 °C -11.3 °C 33765.2 hPa South 7.7 km/h 20.8 km/h 91 % 0 mm 244 W/m2
10:35 -10.1 °C -10.8 °C 33765.2 hPa SE 10.3 km/h 18.2 km/h 92 % 0 mm 754 W/m2
10:40 -9.9 °C -10.8 °C 33765.2 hPa SSW 10.3 km/h 20.8 km/h 90 % 0 mm 327 W/m2
10:45 -9.9 °C -11.1 °C 33765.2 hPa South 5.1 km/h 23.3 km/h 88 % 0 mm 246 W/m2
10:50 -10 °C -11.1 °C 33765.2 hPa SSW 7.7 km/h 23.3 km/h 88 % 0 mm 213 W/m2
10:55 -10.1 °C -11.3 °C 33765.2 hPa SSW 18.2 km/h 23.3 km/h 87 % 0 mm 274 W/m2
11:00 -10.1 °C -11.4 °C 33765.2 hPa South 10.3 km/h 23.3 km/h 86 % 0 mm 234 W/m2
11:05 -10.1 °C -11.2 °C 33765.2 hPa SE 2.6 km/h 18.2 km/h 87 % 0 mm 594 W/m2
11:10 -9.9 °C -11.3 °C 33751.6 hPa SSW 15.6 km/h 20.8 km/h 85 % 0 mm 274 W/m2
11:20 -9.9 °C -11.4 °C 33765.2 hPa Calm   18.2 km/h 84 % 0 mm 148 W/m2
11:25 -10.2 °C -11.8 °C 33765.2 hPa SW 10.3 km/h 18.2 km/h 83 % 0 mm 134 W/m2
11:30 -10.3 °C -11.7 °C 33751.6 hPa South 5.1 km/h 18.2 km/h 85 % 0 mm 109 W/m2
11:35 -10.4 °C -11.7 °C 33765.2 hPa South 12.9 km/h 18.2 km/h 86 % 0 mm 79 W/m2
11:40 -10.5 °C -11.8 °C 33765.2 hPa South 10.3 km/h 20.8 km/h 86 % 0 mm 77 W/m2
11:45 -10.6 °C -11.8 °C 33765.2 hPa SSE 12.9 km/h 23.3 km/h 86 % 0 mm 109 W/m2
11:50 -10.6 °C -11.8 °C 33751.6 hPa South 10.3 km/h 23.3 km/h 86 % 0 mm 209 W/m2
11:55 -10.4 °C -11.8 °C 33751.6 hPa SSE 12.9 km/h 20.8 km/h 85 % 0 mm 260 W/m2
12:05 -10.5 °C -11.9 °C 33751.6 hPa South 7.7 km/h 23.3 km/h 84 % 0 mm 186 W/m2
12:10 -10.5 °C -12 °C 33751.6 hPa SSW 10.3 km/h 20.8 km/h 84 % 0 mm 130 W/m2
12:15 -10.6 °C -12.1 °C 33751.6 hPa South 12.9 km/h 23.3 km/h 84 % 0 mm 77 W/m2
12:20 -10.7 °C -12.1 °C 33751.6 hPa South 15.6 km/h 23.3 km/h 85 % 0 mm 60 W/m2
12:25 -10.8 °C -12.1 °C 33751.6 hPa SSE 5.1 km/h 23.3 km/h 86 % 0 mm 63 W/m2
12:30 -10.9 °C -12.1 °C 33751.6 hPa South 10.3 km/h 20.8 km/h 87 % 0 mm 156 W/m2
12:35 -10.7 °C -11.9 °C 33751.6 hPa South 5.1 km/h 15.6 km/h 87 % 0 mm 221 W/m2
12:40 -10.6 °C -11.8 °C 33751.6 hPa Calm   15.6 km/h 86 % 0 mm 167 W/m2
12:50 -10.6 °C -12 °C 33751.6 hPa South 10.3 km/h 20.8 km/h 85 % 0 mm 90 W/m2
12:55 -10.7 °C -11.9 °C 33751.6 hPa SSW 7.7 km/h 20.8 km/h 86 % 0 mm 109 W/m2
13:00 -10.7 °C -11.9 °C 33751.6 hPa South 12.9 km/h 23.3 km/h 86 % 0 mm 141 W/m2
13:05 -10.6 °C -12 °C 33751.6 hPa SSW 18.2 km/h 25.9 km/h 85 % 0 mm 69 W/m2
13:10 -10.6 °C -12.1 °C 33741.5 hPa SSE 7.7 km/h 25.9 km/h 84 % 0 mm 47 W/m2
13:15 -10.7 °C -12.2 °C 33741.5 hPa SSW 5.1 km/h 20.8 km/h 84 % 0 mm 54 W/m2
13:20 -10.7 °C -12.1 °C 33741.5 hPa SSW 7.7 km/h 20.8 km/h 85 % 0 mm 69 W/m2
13:25 -10.8 °C -12.1 °C 33751.6 hPa SW 15.6 km/h 20.8 km/h 86 % 0 mm 40 W/m2
13:35 -11.6 °C -12.8 °C 33765.2 hPa West 12.9 km/h 41.4 km/h 86 % 0 mm 47 W/m2
13:40 -11.9 °C -12.9 °C 33765.2 hPa WNW 7.7 km/h 41.4 km/h 89 % 0 mm 46 W/m2
13:45 -12.1 °C -12.9 °C 33765.2 hPa WNW 12.9 km/h 33.6 km/h 91 % 7.62 mm 65 W/m2
13:50 -12.2 °C -12.9 °C 33765.2 hPa WSW 20.8 km/h 31.1 km/h 92 % 12.7 mm 44 W/m2
13:55 -12.3 °C -12.9 °C 33765.2 hPa WNW 12.9 km/h 44.1 km/h 92 % 25.4 mm 54 W/m2
14:00 -12.4 °C -13.1 °C 33765.2 hPa West 20.8 km/h 67.3 km/h 92 % 38.1 mm 120 W/m2
14:05 -12.6 °C -13.2 °C 33765.2 hPa WSW 33.6 km/h 67.3 km/h 92 % 45.72 mm 120 W/m2
14:10 -12.6 °C -13.2 °C 33765.2 hPa WSW 15.6 km/h 51.8 km/h 93 % 50.8 mm 72 W/m2
14:20 -12.6 °C -13.1 °C 33751.6 hPa WSW 15.6 km/h 46.7 km/h 93 % 71.12 mm 54 W/m2
14:25 -12.6 °C -13.2 °C 33765.2 hPa SW 20.8 km/h 46.7 km/h 93 % 83.82 mm 51 W/m2
14:30 -12.6 °C -13.2 °C 33765.2 hPa West 20.8 km/h 41.4 km/h 93 % 83.82 mm 53 W/m2
14:35 -12.7 °C -13.3 °C 33775.4 hPa WSW 23.3 km/h 51.8 km/h 93 % 83.82 mm 69 W/m2
14:45 -12.6 °C -13.2 °C 33775.4 hPa West 18.2 km/h 36.2 km/h 93 % 83.82 mm 77 W/m2
14:50 -12.6 °C -13.2 °C 33765.2 hPa WSW 10.3 km/h 36.2 km/h 93 % 83.82 mm 91 W/m2
14:55 -12.6 °C -13.2 °C 33765.2 hPa SSW 10.3 km/h 36.2 km/h 93 % 58.42 mm 97 W/m2
15:05 -12.4 °C -13.1 °C 33775.4 hPa SSW 7.7 km/h 28.5 km/h 93 % 45.72 mm 76 W/m2
15:10 -12.4 °C -13 °C 33775.4 hPa SSW 7.7 km/h 28.5 km/h 93 % 38.1 mm 91 W/m2
15:15 -12.3 °C -12.9 °C 33775.4 hPa SW 5.1 km/h 23.3 km/h 93 % 38.1 mm 72 W/m2
15:20 -12.3 °C -12.8 °C 33765.2 hPa South 12.9 km/h 25.9 km/h 93 % 20.32 mm 86 W/m2
15:25 -12.2 °C -12.8 °C 33765.2 hPa SSW 7.7 km/h 25.9 km/h 93 % 12.7 mm 148 W/m2
15:30 -12.1 °C -12.6 °C 33775.4 hPa SSW 10.3 km/h 25.9 km/h 93 % 7.62 mm 156 W/m2
15:35 -12 °C -12.6 °C 33775.4 hPa SW 23.3 km/h 25.9 km/h 93 % 7.62 mm 199 W/m2
15:40 -11.6 °C -12.2 °C 33775.4 hPa SW 25.9 km/h 33.6 km/h 93 % 7.62 mm 891 W/m2
15:50 -10.8 °C -11.8 °C 33775.4 hPa WSW 28.5 km/h 54.4 km/h 89 % 0 mm 900 W/m2
15:55 -10.9 °C -12.2 °C 33788.9 hPa WSW 41.4 km/h 72.6 km/h 86 % 0 mm 88 W/m2
16:00 -11.8 °C -13.2 °C 33788.9 hPa WSW 36.2 km/h 72.6 km/h 85 % 12.7 mm 153 W/m2
16:05 -12.2 °C -13.1 °C 33788.9 hPa SW 23.3 km/h 49.2 km/h 90 % 20.32 mm 323 W/m2
16:10 -12 °C -12.7 °C 33788.9 hPa WSW 44.1 km/h 44.1 km/h 92 % 20.32 mm 345 W/m2
16:15 -11.9 °C -12.7 °C 33788.9 hPa SW 18.2 km/h 57 km/h 91 % 20.32 mm 357 W/m2
16:20 -11.7 °C -12.6 °C 33788.9 hPa SW 15.6 km/h 57 km/h 90 % 20.32 mm 315 W/m2
16:25 -11.6 °C -12.4 °C 33788.9 hPa WSW 44.1 km/h 44.1 km/h 90 % 20.32 mm 380 W/m2
16:35 -11.5 °C -12.7 °C 33788.9 hPa West 18.2 km/h 51.8 km/h 87 % 20.32 mm 396 W/m2
16:40 -11.3 °C -12.7 °C 33799.1 hPa WNW 18.2 km/h 59.5 km/h 85 % 20.32 mm 341 W/m2
16:45 -11.4 °C -12.9 °C 33799.1 hPa West 44.1 km/h 67.3 km/h 84 % 20.32 mm 350 W/m2
16:50 -11.4 °C -12.9 °C 33799.1 hPa SW 15.6 km/h 67.3 km/h 83 % 20.32 mm 494 W/m2
16:55 -11.2 °C -12.6 °C 33799.1 hPa WSW 12.9 km/h 62.1 km/h 84 % 20.32 mm 823 W/m2
17:00 -11.5 °C -13.2 °C 33799.1 hPa WSW 31.1 km/h 64.7 km/h 81 % 12.7 mm 209 W/m2
17:05 -11.9 °C -13.5 °C 33809.2 hPa West 41.4 km/h 64.7 km/h 82 % 0 mm 403 W/m2
17:10 -11.8 °C -13.2 °C 33799.1 hPa SW 10.3 km/h 64.7 km/h 85 % 0 mm 410 W/m2
17:20 -11.2 °C -12.8 °C 33799.1 hPa West 28.5 km/h 57 km/h 82 % 0 mm 619 W/m2
17:25 -11.3 °C -13.2 °C 33799.1 hPa West 15.6 km/h 59.5 km/h 79 % 0 mm 487 W/m2
17:30 -11.2 °C -13.1 °C 33799.1 hPa WSW 25.9 km/h 59.5 km/h 79 % 0 mm 596 W/m2
17:35 -11.1 °C -13.4 °C 33799.1 hPa WSW 36.2 km/h 67.3 km/h 76 % 0 mm 563 W/m2
17:40 -11.1 °C -13.4 °C 33809.2 hPa West 36.2 km/h 67.3 km/h 75 % 0 mm 543 W/m2
17:45 -11.1 °C -13.6 °C 33809.2 hPa WSW 12.9 km/h 59.5 km/h 74 % 0 mm 527 W/m2
17:50 -11.1 °C -13.3 °C 33809.2 hPa West 23.3 km/h 59.5 km/h 76 % 0 mm 515 W/m2
17:55 -10.9 °C -13.3 °C 33809.2 hPa SW 10.3 km/h 54.4 km/h 75 % 0 mm 527 W/m2
18:05 -11 °C -13.2 °C 33809.2 hPa WSW 38.8 km/h 44.1 km/h 77 % 0 mm 487 W/m2
18:10 -11.1 °C -13.7 °C 33809.2 hPa SW 12.9 km/h 57 km/h 73 % 0 mm 461 W/m2
18:15 -11.2 °C -13.6 °C 33809.2 hPa WSW 23.3 km/h 57 km/h 75 % 0 mm 410 W/m2
18:20 -11.2 °C -13.4 °C 33799.1 hPa WSW 7.7 km/h 57 km/h 76 % 0 mm 353 W/m2
18:25 -11.2 °C -13.4 °C 33799.1 hPa NW 33.6 km/h 57 km/h 77 % 0 mm 350 W/m2
18:30 -11.1 °C -13.2 °C 33799.1 hPa WSW 28.5 km/h 54.4 km/h 78 % 0 mm 422 W/m2
18:35 -11.1 °C -13.1 °C 33799.1 hPa WSW 20.8 km/h 54.4 km/h 78 % 0 mm 476 W/m2
18:40 -10.9 °C -13.2 °C 33799.1 hPa WNW 23.3 km/h 49.2 km/h 76 % 0 mm 155 W/m2
18:50 -11.2 °C -13.2 °C 33799.1 hPa WSW 15.6 km/h 62.1 km/h 79 % 0 mm 304 W/m2
18:55 -11.1 °C -13.2 °C 33799.1 hPa WSW 25.9 km/h 62.1 km/h 78 % 0 mm 283 W/m2
19:00 -11.4 °C -13.5 °C 33799.1 hPa SW 23.3 km/h 49.2 km/h 78 % 0 mm 127 W/m2
19:05 -11.9 °C -13.7 °C 33799.1 hPa SW 7.7 km/h 49.2 km/h 81 % 12.7 mm 102 W/m2
19:10 -12.1 °C -13.4 °C 33799.1 hPa WSW 12.9 km/h 49.2 km/h 86 % 12.7 mm 74 W/m2
19:15 -12.1 °C -13.2 °C 33799.1 hPa WSW 18.2 km/h 49.2 km/h 88 % 12.7 mm 178 W/m2
19:20 -12.1 °C -13 °C 33788.9 hPa West 18.2 km/h 57 km/h 89 % 12.7 mm 410 W/m2
19:25 -11.9 °C -13.2 °C 33799.1 hPa West 18.2 km/h 59.5 km/h 86 % 12.7 mm 299 W/m2
19:35 -12.2 °C -13.6 °C 33799.1 hPa WNW 25.9 km/h 54.4 km/h 84 % 12.7 mm 74 W/m2
19:40 -12.2 °C -13.6 °C 33799.1 hPa WSW 20.8 km/h 54.4 km/h 84 % 12.7 mm 204 W/m2
19:45 -12.2 °C -13.6 °C 33799.1 hPa WSW 23.3 km/h 82.9 km/h 84 % 12.7 mm 37 W/m2
19:50 -12.3 °C -13.6 °C 33799.1 hPa SW 44.1 km/h 82.9 km/h 85 % 12.7 mm 91 W/m2
19:55 -12.3 °C -13.4 °C 33799.1 hPa WNW 12.9 km/h 51.8 km/h 87 % 12.7 mm 192 W/m2
20:00 -12.2 °C -13.2 °C 33799.1 hPa SSW 23.3 km/h 62.1 km/h 88 % 12.7 mm 77 W/m2
20:05 -12.3 °C -13.4 °C 33799.1 hPa WNW 12.9 km/h 62.1 km/h 87 % 0 mm 44 W/m2
20:10 -12.3 °C -13.4 °C 33799.1 hPa West 25.9 km/h 59.5 km/h 87 % 0 mm 58 W/m2
20:15 -12.5 °C -13.8 °C 33809.2 hPa West 25.9 km/h 59.5 km/h 85 % 0 mm 19 W/m2
20:20 -12.6 °C -13.8 °C 33822.8 hPa NW 28.5 km/h 69.8 km/h 86 % 0 mm 37 W/m2
20:25 -12.6 °C -13.8 °C 33822.8 hPa WNW 18.2 km/h 69.8 km/h 86 % 0 mm 25 W/m2
20:30 -12.6 °C -13.7 °C 33822.8 hPa West 33.6 km/h 59.5 km/h 87 % 0 mm 21 W/m2
20:35 -12.6 °C -13.8 °C 33832.9 hPa West 51.8 km/h 59.5 km/h 86 % 0 mm 14 W/m2
20:40 -12.6 °C -14 °C 33832.9 hPa West 46.7 km/h 59.5 km/h 84 % 0 mm 9 W/m2
20:45 -12.6 °C -14.1 °C 33843.1 hPa West 38.8 km/h 72.6 km/h 83 % 0 mm 9 W/m2
20:50 -12.6 °C -14.2 °C 33856.6 hPa NW 46.7 km/h 72.6 km/h 82 % 0 mm 18 W/m2
20:55 -12.7 °C -14.3 °C 33856.6 hPa West 36.2 km/h 69.8 km/h 82 % 0 mm 11 W/m2
21:05 -12.7 °C -14 °C 33866.8 hPa WNW 33.6 km/h 59.5 km/h 85 % 7.62 mm 0 W/m2
21:10 -12.8 °C -14 °C 33880.3 hPa WNW 33.6 km/h 62.1 km/h 86 % 7.62 mm 0 W/m2
21:15 -12.9 °C -14 °C 33880.3 hPa WNW 20.8 km/h 62.1 km/h 87 % 7.62 mm 0 W/m2
21:20 -12.9 °C -14.1 °C 33890.5 hPa NNW 25.9 km/h 54.4 km/h 87 % 7.62 mm 0 W/m2
21:25 -12.9 °C -14 °C 33890.5 hPa WNW 15.6 km/h 59.5 km/h 88 % 7.62 mm 0 W/m2
21:30 -12.9 °C -14.1 °C 33890.5 hPa West 31.1 km/h 64.7 km/h 87 % 7.62 mm 0 W/m2
21:35 -13 °C -14.1 °C 33900.6 hPa West 41.4 km/h 64.7 km/h 88 % 7.62 mm 0 W/m2
21:40 -13 °C -14.1 °C 33900.6 hPa WNW 41.4 km/h 51.8 km/h 88 % 7.62 mm 0 W/m2
21:50 -13 °C -14.1 °C 33914.2 hPa West 38.8 km/h 62.1 km/h 88 % 12.7 mm 0 W/m2
21:55 -12.9 °C -14 °C 33914.2 hPa West 25.9 km/h 59.5 km/h 88 % 12.7 mm 0 W/m2
22:00 -13 °C -14.1 °C 33924.3 hPa West 31.1 km/h 59.5 km/h 88 % 12.7 mm 0 W/m2
22:05 -13.2 °C -14.1 °C 33937.9 hPa West 15.6 km/h 54.4 km/h 89 % 12.7 mm 0 W/m2
22:10 -13.2 °C -14.1 °C 33937.9 hPa WNW 23.3 km/h 54.4 km/h 90 % 20.32 mm 0 W/m2
22:15 -13.4 °C -14.2 °C 33937.9 hPa WNW 23.3 km/h 51.8 km/h 90 % 25.4 mm 0 W/m2
22:20 -13.5 °C -14.3 °C 33924.3 hPa WNW 15.6 km/h 51.8 km/h 90 % 25.4 mm 0 W/m2
22:25 -13.5 °C -14.3 °C 33924.3 hPa NW 18.2 km/h 38.8 km/h 91 % 25.4 mm 0 W/m2
22:35 -13.5 °C -14.3 °C 33937.9 hPa West 18.2 km/h 31.1 km/h 91 % 33.02 mm 0 W/m2
22:40 -13.5 °C -14.3 °C 33948 hPa WNW 23.3 km/h 31.1 km/h 91 % 33.02 mm 0 W/m2
22:45 -13.5 °C -14.3 °C 33948 hPa WNW 12.9 km/h 28.5 km/h 91 % 33.02 mm 0 W/m2
22:50 -13.5 °C -14.3 °C 33948 hPa WNW 12.9 km/h 28.5 km/h 91 % 25.4 mm 0 W/m2
22:55 -13.4 °C -14.1 °C 33958.2 hPa WNW 10.3 km/h 20.8 km/h 92 % 25.4 mm 0 W/m2
23:00 -13.4 °C -14.1 °C 33958.2 hPa West 10.3 km/h 23.3 km/h 92 % 33.02 mm 0 W/m2
23:05 -13.5 °C -14.2 °C 33971.7 hPa West 18.2 km/h 33.6 km/h 92 % 33.02 mm 0 W/m2
23:10 -13.5 °C -14.2 °C 33971.7 hPa WNW 5.1 km/h 33.6 km/h 92 % 25.4 mm 0 W/m2
23:15 -13.5 °C -14.2 °C 33971.7 hPa West 7.7 km/h 25.9 km/h 92 % 20.32 mm 0 W/m2
23:20 -13.5 °C -14.1 °C 33971.7 hPa West 12.9 km/h 23.3 km/h 93 % 20.32 mm 0 W/m2
23:25 -13.4 °C -14 °C 33971.7 hPa NNW 18.2 km/h 23.3 km/h 93 % 20.32 mm 0 W/m2
23:30 -13.3 °C -13.9 °C 33971.7 hPa West 23.3 km/h 38.8 km/h 93 % 20.32 mm 0 W/m2
23:35 -13.1 °C -13.6 °C 33981.9 hPa WSW 28.5 km/h 38.8 km/h 94 % 12.7 mm 0 W/m2
23:40 -12.9 °C -13.6 °C 33981.9 hPa WNW 41.4 km/h 54.4 km/h 93 % 12.7 mm 0 W/m2
23:45 -12.9 °C -13.7 °C 33981.9 hPa West 28.5 km/h 54.4 km/h 92 % 12.7 mm 0 W/m2
23:50 -12.9 °C -13.7 °C 33981.9 hPa West 18.2 km/h 54.4 km/h 92 % 12.7 mm 0 W/m2
23:55 -12.9 °C -13.7 °C 33981.9 hPa NW 25.9 km/h 44.1 km/h 91 % 12.7 mm 0 W/m2
Avec l'autorisation de Weather Underground - 1.5 mb